createdAt,value
2018-03-01T00:01:04.307Z,-3.19
2018-03-01T00:03:30.695Z,-3.42
2018-03-01T00:05:57.058Z,-3.43
2018-03-01T00:08:23.475Z,-3.27
2018-03-01T00:10:49.853Z,-3.95
2018-03-01T00:13:16.238Z,-3.79
2018-03-01T00:15:42.680Z,-4.33
2018-03-01T00:18:09.030Z,-3.56
2018-03-01T00:20:35.386Z,-3.62
2018-03-01T00:23:01.766Z,-3.50
2018-03-01T00:25:28.165Z,-3.36
2018-03-01T00:27:54.602Z,-3.15
2018-03-01T00:30:20.961Z,-3.09
2018-03-01T00:32:47.356Z,-3.04
2018-03-01T00:35:13.749Z,-3.10
2018-03-01T00:37:40.129Z,-3.02
2018-03-01T00:40:06.522Z,-3.27
2018-03-01T00:42:32.926Z,-3.10
2018-03-01T00:44:59.381Z,-3.19
2018-03-01T00:47:25.754Z,-3.50
2018-03-01T00:49:52.155Z,-3.20
2018-03-01T00:52:18.546Z,-3.55
2018-03-01T00:54:44.909Z,-3.42
2018-03-01T00:57:11.305Z,-3.55
2018-03-01T00:59:37.696Z,-3.53
2018-03-01T01:02:04.104Z,-3.54
2018-03-01T01:04:30.527Z,-3.58
2018-03-01T01:06:56.906Z,-3.77
2018-03-01T01:09:23.276Z,-3.55
2018-03-01T01:11:49.761Z,-3.44
2018-03-01T01:14:16.142Z,-3.55
2018-03-01T01:16:42.517Z,-3.41
2018-03-01T01:19:08.934Z,-3.48
2018-03-01T01:21:35.409Z,-3.39
2018-03-01T01:24:01.837Z,-3.46
2018-03-01T01:26:28.210Z,-3.52
2018-03-01T01:28:56.058Z,-3.67
2018-03-01T01:31:22.465Z,-3.61
2018-03-01T01:33:49.238Z,-3.55
2018-03-01T01:36:15.678Z,-3.35
2018-03-01T01:38:42.111Z,-3.68
2018-03-01T01:41:08.480Z,-4.00
2018-03-01T01:43:34.847Z,-4.29
2018-03-01T01:46:01.247Z,-4.16
2018-03-01T01:48:27.603Z,-3.84
2018-03-01T01:51:02.938Z,-3.72
2018-03-01T01:53:29.313Z,-3.70
2018-03-01T01:55:55.725Z,-3.66
2018-03-01T01:58:22.066Z,-3.62
2018-03-01T02:00:48.487Z,-3.83
2018-03-01T02:03:14.887Z,-3.89
2018-03-01T02:05:41.253Z,-3.74
2018-03-01T02:08:07.614Z,-3.70
2018-03-01T02:10:35.362Z,-3.79
2018-03-01T02:13:10.086Z,-3.83
2018-03-01T02:15:36.922Z,-3.77
2018-03-01T02:18:09.397Z,-3.97
2018-03-01T02:20:35.795Z,-3.82
2018-03-01T02:23:11.105Z,-3.80
2018-03-01T02:25:46.748Z,-3.98
2018-03-01T02:28:14.515Z,-3.98
2018-03-01T02:30:40.938Z,-4.04
2018-03-01T02:33:07.363Z,-3.99
2018-03-01T02:35:33.829Z,-4.17
2018-03-01T02:38:00.239Z,-3.90
2018-03-01T02:40:26.650Z,-3.95
2018-03-01T02:42:53.022Z,-4.03
2018-03-01T02:45:19.429Z,-4.28
2018-03-01T02:47:45.863Z,-4.19
2018-03-01T02:50:12.278Z,-4.06
2018-03-01T02:52:38.742Z,-4.89
2018-03-01T02:55:05.118Z,-4.59
2018-03-01T02:57:31.529Z,-4.31
2018-03-01T02:59:57.931Z,-4.48
2018-03-01T03:02:24.310Z,-4.06
2018-03-01T03:04:50.698Z,-4.24
2018-03-01T03:07:17.085Z,-4.02
2018-03-01T03:09:43.461Z,-4.18
2018-03-01T03:12:09.859Z,-4.02
2018-03-01T03:14:36.258Z,-4.61
2018-03-01T03:17:02.814Z,-4.41
2018-03-01T03:19:29.174Z,-4.25
2018-03-01T03:21:55.569Z,-4.33
2018-03-01T03:24:21.934Z,-4.29
2018-03-01T03:26:48.354Z,-4.10
2018-03-01T03:29:14.758Z,-4.05
2018-03-01T03:31:41.136Z,-4.04
2018-03-01T03:34:07.506Z,-4.49
2018-03-01T03:36:33.884Z,-4.48
2018-03-01T03:39:00.300Z,-4.39
2018-03-01T03:41:26.665Z,-4.36
2018-03-01T03:43:53.040Z,-4.31
2018-03-01T03:46:19.447Z,-4.19
2018-03-01T03:48:45.811Z,-4.19
2018-03-01T03:51:13.430Z,-4.26
2018-03-01T03:53:39.794Z,-4.16
2018-03-01T03:56:06.189Z,-4.56
2018-03-01T03:58:32.557Z,-4.43
2018-03-01T04:00:58.946Z,-4.43
2018-03-01T04:03:32.311Z,-5.23
2018-03-01T04:05:58.678Z,-4.66
2018-03-01T04:08:25.053Z,-4.96
2018-03-01T04:10:51.559Z,-4.89
2018-03-01T04:13:17.959Z,-5.11
2018-03-01T04:15:45.354Z,-5.03
2018-03-01T04:18:11.763Z,-4.81
2018-03-01T04:20:38.153Z,-4.86
2018-03-01T04:23:04.547Z,-4.68
2018-03-01T04:25:30.953Z,-4.66
2018-03-01T04:27:57.372Z,-4.52
2018-03-01T04:30:23.762Z,-4.68
2018-03-01T04:32:50.149Z,-4.61
2018-03-01T04:35:16.683Z,-4.64
2018-03-01T04:37:43.125Z,-4.88
2018-03-01T04:40:09.500Z,-4.96
2018-03-01T04:42:39.986Z,-5.31
2018-03-01T04:45:06.490Z,-5.59
2018-03-01T04:47:32.873Z,-5.47
2018-03-01T05:03:21.021Z,-5.87
2018-03-01T05:05:47.377Z,-5.88
2018-03-01T05:08:13.762Z,-6.00
2018-03-01T05:10:40.246Z,-6.02
2018-03-01T05:13:06.613Z,-6.20
2018-03-01T05:15:32.958Z,-6.37
2018-03-01T05:17:59.389Z,-5.87
2018-03-01T05:20:25.745Z,-6.26
2018-03-01T05:22:52.109Z,-5.95
2018-03-01T05:25:18.470Z,-6.28
2018-03-01T05:27:44.865Z,-6.28
2018-03-01T05:30:11.205Z,-6.26
2018-03-01T05:32:37.590Z,-6.34
2018-03-01T05:35:03.996Z,-6.25
2018-03-01T05:37:30.344Z,-6.36
2018-03-01T05:39:56.724Z,-6.42
2018-03-01T05:42:23.147Z,-6.32
2018-03-01T05:44:49.546Z,-6.88
2018-03-01T05:47:15.921Z,-6.38
2018-03-01T05:49:42.290Z,-6.35
2018-03-01T05:52:08.642Z,-6.18
2018-03-01T05:54:35.050Z,-6.55
2018-03-01T05:57:01.438Z,-6.10
2018-03-01T05:59:27.861Z,-6.23
2018-03-01T06:01:54.226Z,-6.13
2018-03-01T06:04:20.651Z,-6.26
2018-03-01T06:06:47.153Z,-6.14
2018-03-01T06:09:13.578Z,-6.11
2018-03-01T06:11:39.959Z,-6.24
2018-03-01T06:14:06.809Z,-6.37
2018-03-01T06:16:33.322Z,-6.48
2018-03-01T06:18:59.767Z,-6.29
2018-03-01T06:21:26.203Z,-6.00
2018-03-01T06:23:52.627Z,-6.21
2018-03-01T06:26:19.005Z,-6.22
2018-03-01T06:28:45.421Z,-6.12
2018-03-01T06:31:11.766Z,-5.78
2018-03-01T06:33:38.133Z,-5.68
2018-03-01T06:36:04.543Z,-5.65
2018-03-01T06:38:30.901Z,-6.00
2018-03-01T06:40:57.281Z,-6.12
2018-03-01T06:43:23.724Z,-5.57
2018-03-01T06:45:50.215Z,-5.56
2018-03-01T06:48:16.625Z,-5.48
2018-03-01T06:50:43.060Z,-5.31
2018-03-01T06:53:09.505Z,-4.97
2018-03-01T06:55:35.906Z,-4.71
2018-03-01T06:58:02.343Z,-4.69
2018-03-01T07:00:28.774Z,-4.45
2018-03-01T07:02:55.174Z,-4.40
2018-03-01T07:05:21.758Z,-4.42
2018-03-01T07:07:48.146Z,-4.30
2018-03-01T07:10:14.525Z,-4.21
2018-03-01T07:12:41.087Z,-4.04
2018-03-01T07:15:07.483Z,-3.99
2018-03-01T07:17:33.908Z,-3.92
2018-03-01T07:20:00.319Z,-4.51
2018-03-01T07:22:26.729Z,-4.30
2018-03-01T07:24:53.128Z,-4.02
2018-03-01T07:27:19.534Z,-3.86
2018-03-01T07:29:45.946Z,-3.63
2018-03-01T07:32:12.293Z,-3.70
2018-03-01T07:34:38.686Z,-3.76
2018-03-01T07:37:05.197Z,-3.60
2018-03-01T07:39:31.676Z,-3.38
2018-03-01T07:41:58.050Z,-3.28
2018-03-01T07:44:24.422Z,-2.64
2018-03-01T07:46:50.833Z,-2.89
2018-03-01T07:49:17.223Z,-2.80
2018-03-01T07:51:43.628Z,-2.42
2018-03-01T07:54:10.022Z,-1.92
2018-03-01T07:56:36.587Z,-1.82
2018-03-01T07:59:03.061Z,-1.77
2018-03-01T08:01:29.437Z,-1.71
2018-03-01T08:03:55.857Z,-1.44
2018-03-01T08:06:22.223Z,-1.11
2018-03-01T08:08:48.593Z,-1.09
2018-03-01T08:11:14.976Z,-1.03
2018-03-01T08:13:41.409Z,-0.77
2018-03-01T08:16:07.806Z,-0.67
2018-03-01T08:18:34.189Z,-0.34
2018-03-01T08:21:00.572Z,-0.52
2018-03-01T08:23:26.958Z,-0.61
2018-03-01T08:25:53.336Z,-0.22
2018-03-01T08:28:19.728Z,-0.30
2018-03-01T08:30:46.130Z,-0.32
2018-03-01T08:33:12.683Z,-0.20
2018-03-01T08:35:39.126Z,-0.36
2018-03-01T08:38:05.483Z,-0.04
2018-03-01T08:40:31.838Z,-0.02
2018-03-01T08:42:58.193Z,0.09
2018-03-01T08:45:24.559Z,-0.10
2018-03-01T08:47:50.925Z,0.06
2018-03-01T08:50:17.301Z,-0.03
2018-03-01T08:52:43.661Z,0.21
2018-03-01T08:55:10.046Z,-0.25
2018-03-01T08:57:36.418Z,-0.10
2018-03-01T09:00:02.886Z,0.10
2018-03-01T09:02:29.270Z,0.06
2018-03-01T09:04:55.652Z,0.16
2018-03-01T09:07:22.026Z,0.47
2018-03-01T09:09:48.421Z,0.32
2018-03-01T09:12:14.828Z,0.23
2018-03-01T09:14:41.198Z,0.44
2018-03-01T09:17:07.558Z,0.45
2018-03-01T09:19:33.949Z,0.26
2018-03-01T09:22:00.357Z,0.53
2018-03-01T09:24:26.740Z,0.57
2018-03-01T09:26:53.164Z,0.22
2018-03-01T09:29:19.542Z,0.50
2018-03-01T09:31:46.033Z,0.41
2018-03-01T09:34:12.403Z,0.48
2018-03-01T09:36:38.773Z,0.27
2018-03-01T09:39:05.163Z,0.40
2018-03-01T09:41:31.560Z,0.86
2018-03-01T09:43:57.973Z,0.52
2018-03-01T09:46:24.358Z,0.50
2018-03-01T09:48:50.734Z,0.29
2018-03-01T09:51:17.087Z,0.67
2018-03-01T09:53:43.450Z,0.79
2018-03-01T09:56:09.806Z,0.86
2018-03-01T09:58:36.179Z,1.01
2018-03-01T10:01:02.551Z,1.05
2018-03-01T10:03:28.916Z,1.22
2018-03-01T10:05:55.272Z,0.76
2018-03-01T10:08:21.665Z,0.95
2018-03-01T10:10:48.022Z,1.32
2018-03-01T10:13:14.391Z,1.44
2018-03-01T10:15:40.782Z,0.81
2018-03-01T10:18:07.191Z,1.12
2018-03-01T10:20:33.649Z,1.33
2018-03-01T10:23:00.038Z,1.48
2018-03-01T10:25:26.423Z,1.62
2018-03-01T10:27:52.790Z,1.51
2018-03-01T10:30:19.176Z,1.69
2018-03-01T10:32:45.642Z,1.74
2018-03-01T10:35:11.998Z,1.81
2018-03-01T10:37:38.346Z,1.84
2018-03-01T10:40:04.702Z,1.92
2018-03-01T10:42:31.081Z,1.79
2018-03-01T10:44:57.470Z,1.66
2018-03-01T10:47:23.863Z,1.91
2018-03-01T10:49:50.231Z,2.00
2018-03-01T10:52:16.594Z,1.86
2018-03-01T10:54:42.950Z,2.02
2018-03-01T10:57:09.386Z,1.87
2018-03-01T10:59:35.839Z,1.99
2018-03-01T11:02:02.297Z,2.08
2018-03-01T11:04:28.759Z,1.85
2018-03-01T11:06:55.118Z,2.08
2018-03-01T11:09:21.517Z,2.17
2018-03-01T11:11:47.899Z,2.17
2018-03-01T11:14:14.298Z,2.23
2018-03-01T11:16:40.710Z,2.20
2018-03-01T11:19:07.229Z,2.10
2018-03-01T11:21:33.623Z,2.30
2018-03-01T11:23:59.988Z,2.27
2018-03-01T11:26:26.353Z,2.25
2018-03-01T11:28:52.751Z,2.33
2018-03-01T11:31:19.162Z,2.41
2018-03-01T11:33:45.537Z,2.32
2018-03-01T11:36:11.904Z,2.21
2018-03-01T11:38:38.271Z,2.09
2018-03-01T11:41:04.669Z,2.29
2018-03-01T11:43:31.114Z,2.41
2018-03-01T11:45:57.500Z,2.49
2018-03-01T11:48:23.885Z,2.49
2018-03-01T11:50:50.333Z,2.54
2018-03-01T11:53:16.800Z,2.48
2018-03-01T11:55:43.210Z,2.53
2018-03-01T11:58:09.595Z,2.53
2018-03-01T12:00:36.034Z,2.48
2018-03-01T12:03:02.407Z,2.51
2018-03-01T12:05:28.818Z,2.55
2018-03-01T12:07:55.230Z,2.57
2018-03-01T12:10:21.703Z,2.52
2018-03-01T12:12:48.130Z,2.43
2018-03-01T12:15:14.594Z,2.47
2018-03-01T12:17:40.970Z,2.51
2018-03-01T12:20:07.402Z,2.50
2018-03-01T12:22:33.818Z,2.48
2018-03-01T12:25:00.238Z,2.48
2018-03-01T12:27:26.642Z,2.54
2018-03-01T12:29:53.152Z,2.52
2018-03-01T12:32:19.546Z,2.49
2018-03-01T12:34:46.011Z,2.46
2018-03-01T12:37:12.415Z,2.47
2018-03-01T12:39:38.833Z,2.46
2018-03-01T12:42:05.243Z,2.47
2018-03-01T12:44:31.749Z,2.55
2018-03-01T12:46:58.175Z,2.51
2018-03-01T12:49:24.602Z,2.60
2018-03-01T12:51:51.071Z,2.56
2018-03-01T12:54:17.545Z,2.52
2018-03-01T12:56:44.078Z,2.56
2018-03-01T12:59:10.501Z,2.64
2018-03-01T13:01:36.929Z,2.67
2018-03-01T13:04:03.361Z,2.65
2018-03-01T13:06:29.774Z,2.63
2018-03-01T13:08:56.205Z,2.64
2018-03-01T13:11:22.655Z,2.56
2018-03-01T13:13:49.135Z,2.60
2018-03-01T13:16:15.587Z,2.57
2018-03-01T13:18:42.002Z,2.56
2018-03-01T13:21:08.499Z,2.28
2018-03-01T13:23:35.096Z,2.30
2018-03-01T13:26:01.610Z,2.33
2018-03-01T13:28:28.149Z,2.37
2018-03-01T13:30:55.372Z,2.45
2018-03-01T13:33:29.961Z,2.44
2018-03-01T13:35:56.413Z,2.43
2018-03-01T13:38:22.846Z,2.45
2018-03-01T13:40:49.297Z,2.42
2018-03-01T13:43:18.806Z,2.20
2018-03-01T13:45:48.197Z,2.32
2018-03-01T13:48:14.680Z,2.32
2018-03-01T13:50:41.138Z,2.22
2018-03-01T13:53:07.566Z,2.23
2018-03-01T13:55:34.062Z,2.18
2018-03-01T13:58:00.543Z,2.25
2018-03-01T14:00:27.031Z,2.20
2018-03-01T14:02:53.598Z,2.24
2018-03-01T14:05:20.108Z,2.23
2018-03-01T14:21:16.358Z,1.65
2018-03-01T14:23:44.895Z,1.77
2018-03-01T14:26:16.290Z,1.83
2018-03-01T14:28:42.776Z,1.69
2018-03-01T14:31:09.290Z,1.49
2018-03-01T14:33:35.722Z,1.63
2018-03-01T14:36:02.111Z,1.67
2018-03-01T14:38:28.529Z,1.38
2018-03-01T14:40:55.074Z,1.59
2018-03-01T14:43:21.530Z,1.56
2018-03-01T14:45:47.915Z,1.69
2018-03-01T14:48:14.293Z,1.62
2018-03-01T14:50:40.705Z,1.59
2018-03-01T14:53:07.117Z,1.58
2018-03-01T14:55:33.514Z,0.97
2018-03-01T14:57:59.942Z,0.82
2018-03-01T15:00:26.359Z,0.68
2018-03-01T15:02:52.813Z,0.62
2018-03-01T15:05:19.221Z,0.61
2018-03-01T15:07:45.654Z,0.74
2018-03-01T15:10:12.166Z,0.71
2018-03-01T15:12:38.547Z,-0.08
2018-03-01T15:15:04.937Z,0.05
2018-03-01T15:17:31.394Z,0.45
2018-03-01T15:19:57.754Z,0.27
2018-03-01T15:22:24.154Z,0.37
2018-03-01T15:24:50.708Z,0.19
2018-03-01T15:27:17.095Z,0.31
2018-03-01T15:29:43.458Z,0.51
2018-03-01T15:32:09.855Z,0.45
2018-03-01T15:34:36.301Z,0.26
2018-03-01T15:37:02.709Z,0.04
2018-03-01T15:39:29.214Z,0.18
2018-03-01T15:41:55.669Z,-0.03
2018-03-01T15:44:22.025Z,0.06
2018-03-01T15:46:48.451Z,-0.01
2018-03-01T15:49:14.869Z,0.08
2018-03-01T15:51:41.313Z,-0.20
2018-03-01T15:54:07.697Z,-0.29
2018-03-01T15:56:34.122Z,-0.25
2018-03-01T15:59:00.594Z,-0.08
2018-03-01T16:01:26.974Z,-0.01
2018-03-01T16:03:53.426Z,-0.09
2018-03-01T16:06:19.885Z,-0.28
2018-03-01T16:08:46.250Z,-0.10
2018-03-01T16:11:12.740Z,-0.36
2018-03-01T16:13:39.150Z,-0.95
2018-03-01T16:16:05.559Z,-0.90
2018-03-01T16:18:32.027Z,-1.29
2018-03-01T16:20:58.449Z,-1.04
2018-03-01T16:23:24.803Z,-0.74
2018-03-01T16:25:51.194Z,-0.56
2018-03-01T16:28:17.594Z,-0.37
2018-03-01T16:30:48.462Z,-0.62
2018-03-01T16:33:14.866Z,-0.65
2018-03-01T16:35:41.302Z,-0.79
2018-03-01T16:38:07.701Z,-0.85
2018-03-01T16:40:34.153Z,-0.72
2018-03-01T16:43:00.615Z,-0.53
2018-03-01T16:45:27.012Z,-0.47
2018-03-01T16:47:53.409Z,-0.46
2018-03-01T16:50:19.866Z,-1.00
2018-03-01T16:52:46.286Z,-0.59
2018-03-01T16:55:12.671Z,-0.52
2018-03-01T16:57:39.106Z,-1.07
2018-03-01T17:00:05.527Z,-1.00
2018-03-01T17:02:31.968Z,-0.88
2018-03-01T17:04:58.364Z,-0.62
2018-03-01T17:07:24.754Z,-0.69
2018-03-01T17:09:51.147Z,-0.56
2018-03-01T17:12:17.548Z,-0.67
2018-03-01T17:14:43.963Z,-0.65
2018-03-01T17:17:10.355Z,-0.59
2018-03-01T17:19:36.784Z,-0.74
2018-03-01T17:22:03.154Z,-0.79
2018-03-01T17:24:29.563Z,-0.73
2018-03-01T17:26:55.968Z,-0.85
2018-03-01T17:29:22.362Z,-0.77
2018-03-01T17:31:48.750Z,-0.44
2018-03-01T17:34:15.164Z,-0.51
2018-03-01T17:36:41.585Z,-0.67
2018-03-01T17:39:07.990Z,-0.61
2018-03-01T17:41:34.385Z,-0.86
2018-03-01T17:44:00.766Z,-0.76
2018-03-01T17:46:27.187Z,-0.72
2018-03-01T17:48:53.645Z,-0.71
2018-03-01T17:51:20.029Z,-0.69
2018-03-01T17:53:46.451Z,-0.86
2018-03-01T17:56:12.886Z,-0.98
2018-03-01T17:58:39.281Z,-0.91
2018-03-01T18:01:05.742Z,-0.86
2018-03-01T18:03:32.173Z,-0.84
2018-03-01T18:05:58.590Z,-1.02
2018-03-01T18:08:24.970Z,-0.89
2018-03-01T18:10:51.430Z,-0.79
2018-03-01T18:13:17.827Z,-0.79
2018-03-01T18:15:44.223Z,-0.83
2018-03-01T18:18:10.623Z,-1.01
2018-03-01T18:20:37.006Z,-0.81
2018-03-01T18:23:03.422Z,-0.92
2018-03-01T18:25:29.828Z,-0.84
2018-03-01T18:27:56.256Z,-0.82
2018-03-01T18:30:22.614Z,-0.83
2018-03-01T18:32:49.038Z,-1.02
2018-03-01T18:35:15.410Z,-1.10
2018-03-01T18:37:41.800Z,-1.39
2018-03-01T18:40:08.289Z,-1.01
2018-03-01T18:42:34.705Z,-0.88
2018-03-01T18:45:01.110Z,-0.89
2018-03-01T18:47:27.577Z,-1.00
2018-03-01T18:49:53.989Z,-1.03
2018-03-01T18:52:20.402Z,-0.99
2018-03-01T18:54:46.870Z,-1.04
2018-03-01T18:57:13.253Z,-0.94
2018-03-01T18:59:39.626Z,-0.95
2018-03-01T19:02:06.014Z,-1.12
2018-03-01T19:04:32.422Z,-1.54
2018-03-01T19:06:58.813Z,-1.11
2018-03-01T19:09:25.207Z,-0.98
2018-03-01T19:11:51.645Z,-1.17
2018-03-01T19:14:18.035Z,-1.01
2018-03-01T19:16:44.505Z,-1.11
2018-03-01T19:19:10.898Z,-1.04
2018-03-01T19:21:37.285Z,-0.94
2018-03-01T19:24:03.719Z,-0.97
2018-03-01T19:26:30.135Z,-0.95
2018-03-01T19:28:56.514Z,-0.82
2018-03-01T19:31:22.888Z,-0.88
2018-03-01T19:33:49.306Z,-0.96
2018-03-01T19:36:15.685Z,-0.94
2018-03-01T19:38:42.381Z,-0.84
2018-03-01T19:41:08.765Z,-0.96
2018-03-01T19:43:35.142Z,-0.98
2018-03-01T19:46:01.579Z,-0.83
2018-03-01T19:48:27.991Z,-0.88
2018-03-01T19:50:54.403Z,-0.89
2018-03-01T19:53:20.803Z,-0.87
2018-03-01T19:55:47.239Z,-0.93
2018-03-01T19:58:13.638Z,-0.80
2018-03-01T20:00:40.050Z,-0.82
2018-03-01T20:03:06.511Z,-0.96
2018-03-01T20:05:32.927Z,-0.80
2018-03-01T20:07:59.340Z,-0.72
2018-03-01T20:10:26.191Z,-0.75
2018-03-01T20:12:55.930Z,-0.86
2018-03-01T20:15:24.523Z,-0.93
2018-03-01T20:17:52.619Z,-0.86
2018-03-01T20:20:19.806Z,-0.88
2018-03-01T20:22:46.301Z,-0.83
2018-03-01T20:25:12.704Z,-0.94
2018-03-01T20:27:39.100Z,-1.00
2018-03-01T20:30:05.522Z,-0.85
2018-03-01T20:32:32.075Z,-1.04
2018-03-01T20:34:59.262Z,-1.10
2018-03-01T20:37:27.134Z,-1.08
2018-03-01T20:39:55.746Z,-1.22
2018-03-01T20:42:24.089Z,-0.94
2018-03-01T20:44:50.986Z,-0.95
2018-03-01T20:47:17.510Z,-0.95
2018-03-01T20:49:43.870Z,-1.26
2018-03-01T20:52:10.634Z,-1.31
2018-03-01T20:54:37.367Z,-1.05
2018-03-01T20:57:03.961Z,-0.93
2018-03-01T20:59:30.421Z,-0.91
2018-03-01T21:01:56.975Z,-0.95
2018-03-01T21:04:23.398Z,-0.95
2018-03-01T21:06:49.815Z,-1.08
2018-03-01T21:09:16.182Z,-1.33
2018-03-01T21:11:42.644Z,-1.10
2018-03-01T21:14:09.066Z,-1.14
2018-03-01T21:16:35.466Z,-1.00
2018-03-01T21:19:01.941Z,-0.94
2018-03-01T21:21:28.304Z,-0.96
2018-03-01T21:23:54.671Z,-0.96
2018-03-01T21:26:21.090Z,-1.06
2018-03-01T21:28:47.465Z,-0.96
2018-03-01T21:31:14.077Z,-0.87
2018-03-01T21:33:40.642Z,-0.96
2018-03-01T21:36:07.095Z,-0.89
2018-03-01T21:38:33.484Z,-0.86
2018-03-01T21:40:59.870Z,-0.81
2018-03-01T21:43:26.383Z,-0.70
2018-03-01T21:45:52.766Z,-0.70
2018-03-01T21:48:19.219Z,-0.65
2018-03-01T21:50:45.673Z,-0.64
2018-03-01T21:53:12.132Z,-0.65
2018-03-01T21:55:38.538Z,-0.71
2018-03-01T21:58:04.970Z,-0.87
2018-03-01T22:00:31.366Z,-0.84
2018-03-01T22:02:57.830Z,-0.83
2018-03-01T22:05:24.226Z,-0.79
2018-03-01T22:07:50.635Z,-0.78
2018-03-01T22:10:17.177Z,-0.72
2018-03-01T22:12:43.669Z,-0.75
2018-03-01T22:15:10.925Z,-0.75
2018-03-01T22:17:37.372Z,-0.76
2018-03-01T22:20:03.770Z,-0.77
2018-03-01T22:22:30.209Z,-0.97
2018-03-01T22:24:56.629Z,-0.87
2018-03-01T22:27:23.301Z,-0.85
2018-03-01T22:29:49.731Z,-0.86
2018-03-01T22:32:16.186Z,-0.90
2018-03-01T22:34:42.636Z,-0.99
2018-03-01T22:37:09.026Z,-1.05
2018-03-01T22:39:35.406Z,-0.87
2018-03-01T22:42:01.836Z,-0.90
2018-03-01T22:44:28.270Z,-1.02
2018-03-01T22:46:54.671Z,-1.03
2018-03-01T22:49:21.047Z,-0.90
2018-03-01T22:51:47.397Z,-0.81
2018-03-01T22:54:13.771Z,-0.72
2018-03-01T22:56:40.162Z,-0.62
2018-03-01T22:59:06.543Z,-0.60
2018-03-01T23:01:32.954Z,-0.70
2018-03-01T23:03:59.383Z,-0.59
2018-03-01T23:06:25.759Z,-0.52
2018-03-01T23:08:52.183Z,-0.53
2018-03-01T23:11:18.573Z,-0.62
2018-03-01T23:13:44.973Z,-0.55
2018-03-01T23:16:11.322Z,-0.98
2018-03-01T23:18:37.689Z,-0.95
2018-03-01T23:21:04.070Z,-0.77
2018-03-01T23:23:30.424Z,-0.63
2018-03-01T23:25:57.004Z,-0.57
2018-03-01T23:28:23.570Z,-0.78
2018-03-01T23:30:49.947Z,-0.64
2018-03-01T23:33:16.310Z,-0.48
2018-03-01T23:35:42.750Z,-0.53
2018-03-01T23:38:09.163Z,-0.51
2018-03-01T23:40:35.597Z,-0.46
2018-03-01T23:43:01.985Z,-0.56
2018-03-01T23:45:28.443Z,-0.50
2018-03-01T23:47:54.882Z,-0.52
2018-03-01T23:50:21.245Z,-0.48
2018-03-01T23:52:47.782Z,-0.52
2018-03-01T23:55:14.149Z,-0.58
2018-03-01T23:57:40.532Z,-0.60
